createdAt,value
2023-03-13T00:02:01.345Z,60.43
2023-03-13T00:07:03.280Z,60.51
2023-03-13T00:12:05.331Z,60.29
2023-03-13T00:17:07.008Z,59.93
2023-03-13T00:22:08.645Z,59.70
2023-03-13T00:27:10.262Z,59.84
2023-03-13T00:32:11.970Z,60.19
2023-03-13T00:37:13.659Z,60.06
2023-03-13T00:42:15.380Z,60.11
2023-03-13T00:47:17.014Z,59.94
2023-03-13T00:52:18.638Z,60.02
2023-03-13T00:57:20.242Z,59.86
2023-03-13T01:02:22.098Z,59.78
2023-03-13T01:07:23.820Z,59.60
2023-03-13T01:12:25.524Z,59.36
2023-03-13T01:17:27.320Z,59.25
2023-03-13T01:22:28.938Z,58.92
2023-03-13T01:27:30.964Z,58.75
2023-03-13T01:32:36.191Z,58.79
2023-03-13T01:37:37.835Z,58.90
2023-03-13T01:42:56.112Z,59.42
2023-03-13T01:47:57.962Z,59.65
2023-03-13T01:52:59.654Z,59.72
2023-03-13T01:58:01.604Z,60.46
2023-03-13T02:03:11.580Z,60.94
2023-03-13T02:08:21.624Z,61.65
2023-03-13T02:13:23.288Z,61.96
2023-03-13T02:18:26.094Z,62.20
2023-03-13T02:23:42.314Z,62.19
2023-03-13T02:28:44.075Z,62.33
2023-03-13T02:33:46.293Z,61.97
2023-03-13T02:38:55.234Z,61.97
2023-03-13T02:43:56.852Z,61.82
2023-03-13T02:48:59.657Z,61.95
2023-03-13T02:54:06.747Z,62.44
2023-03-13T02:59:08.422Z,62.81
2023-03-13T03:04:10.063Z,63.40
2023-03-13T03:09:11.736Z,63.99
2023-03-13T03:14:14.008Z,64.30
2023-03-13T03:19:15.644Z,64.86
2023-03-13T03:24:17.330Z,65.36
2023-03-13T03:29:19.138Z,65.59
2023-03-13T03:34:20.921Z,66.19
2023-03-13T03:39:22.686Z,66.76
2023-03-13T03:44:24.419Z,66.92
2023-03-13T03:49:26.087Z,66.89
2023-03-13T03:54:27.718Z,67.18
2023-03-13T03:59:29.396Z,67.19
2023-03-13T04:04:31.094Z,67.09
2023-03-13T04:09:32.838Z,66.95
2023-03-13T04:14:34.447Z,66.93
2023-03-13T04:19:36.087Z,66.78
2023-03-13T04:24:37.848Z,66.84
2023-03-13T04:29:39.486Z,66.70
2023-03-13T04:34:41.177Z,66.67
2023-03-13T04:39:42.912Z,66.74
2023-03-13T04:44:44.565Z,66.88
2023-03-13T04:49:46.174Z,66.79
2023-03-13T04:54:47.984Z,66.95
2023-03-13T04:59:49.676Z,66.79
2023-03-13T05:04:52.383Z,66.55
2023-03-13T05:09:54.257Z,67.01
2023-03-13T05:14:55.934Z,66.97
2023-03-13T05:19:57.640Z,67.30
2023-03-13T05:24:59.280Z,67.91
2023-03-13T05:30:00.968Z,67.92
2023-03-13T05:35:02.656Z,68.10
2023-03-13T05:40:04.663Z,68.13
2023-03-13T05:45:06.867Z,67.91
2023-03-13T05:50:09.113Z,68.17
2023-03-13T05:55:10.904Z,68.33
2023-03-13T06:00:14.179Z,68.28
2023-03-13T06:05:15.811Z,68.29
2023-03-13T06:10:17.584Z,68.23
2023-03-13T06:15:19.255Z,67.92
2023-03-13T06:20:20.863Z,67.78
2023-03-13T06:25:23.636Z,67.48
2023-03-13T06:30:25.240Z,67.15
2023-03-13T06:35:26.910Z,67.53
2023-03-13T06:40:28.550Z,66.39
2023-03-13T06:45:30.232Z,66.07
2023-03-13T06:50:31.868Z,66.02
2023-03-13T06:55:33.694Z,65.77
2023-03-13T07:00:35.534Z,65.29
2023-03-13T07:05:38.168Z,65.16
2023-03-13T07:10:42.373Z,65.11
2023-03-13T07:15:43.976Z,63.97
2023-03-13T07:20:51.753Z,63.90
2023-03-13T07:25:55.890Z,63.12
2023-03-13T07:31:08.255Z,62.86
2023-03-13T07:36:10.932Z,63.09
2023-03-13T07:41:13.678Z,63.21
2023-03-13T07:46:21.639Z,62.74
2023-03-13T07:51:42.064Z,62.72
2023-03-13T07:56:44.873Z,62.45
2023-03-13T08:01:46.536Z,62.09
2023-03-13T08:06:48.132Z,61.92
2023-03-13T08:11:49.744Z,62.22
2023-03-13T08:16:51.356Z,62.40
2023-03-13T08:21:53.011Z,62.33
2023-03-13T08:26:54.792Z,62.49
2023-03-13T08:31:56.494Z,61.94
2023-03-13T08:36:58.300Z,61.94
2023-03-13T08:41:59.971Z,61.48
2023-03-13T08:47:01.720Z,61.27
2023-03-13T08:52:05.652Z,60.66
2023-03-13T08:57:07.285Z,60.35
2023-03-13T09:02:09.842Z,60.29
2023-03-13T09:07:11.511Z,60.33
2023-03-13T09:12:24.598Z,60.05
2023-03-13T09:17:31.449Z,59.50
2023-03-13T09:22:33.101Z,58.70
2023-03-13T09:27:34.689Z,58.20
2023-03-13T09:32:36.379Z,58.86
2023-03-13T09:37:38.065Z,58.54
2023-03-13T09:43:00.548Z,59.44
2023-03-13T09:48:23.728Z,60.08
2023-03-13T09:53:36.197Z,60.17
2023-03-13T09:58:44.051Z,61.16
2023-03-13T10:03:52.697Z,61.00
2023-03-13T10:08:54.321Z,60.39
2023-03-13T10:14:19.701Z,60.09
2023-03-13T10:19:28.422Z,60.24
2023-03-13T10:24:29.987Z,60.36
2023-03-13T10:29:32.176Z,59.27
2023-03-13T10:35:00.598Z,59.15
2023-03-13T10:40:25.655Z,59.43
2023-03-13T10:45:32.423Z,60.34
2023-03-13T10:50:35.718Z,60.79
2023-03-13T10:55:44.317Z,60.36
2023-03-13T11:00:46.103Z,60.40
2023-03-13T11:06:02.561Z,62.27
2023-03-13T11:11:15.719Z,62.74
2023-03-13T11:16:51.215Z,64.38
2023-03-13T11:22:25.291Z,63.85
2023-03-13T11:27:32.698Z,64.05
2023-03-13T11:33:00.815Z,65.41
2023-03-13T11:38:08.528Z,65.14
2023-03-13T11:43:42.442Z,65.25
2023-03-13T11:49:20.519Z,64.58
2023-03-13T11:54:40.442Z,63.88
2023-03-13T12:00:15.263Z,63.79
2023-03-13T12:05:19.975Z,63.82
2023-03-13T12:10:30.992Z,63.79
2023-03-13T12:15:40.365Z,63.58
2023-03-13T12:20:56.736Z,63.21
2023-03-13T12:26:01.320Z,63.11
2023-03-13T12:31:17.799Z,63.00
2023-03-13T12:36:40.415Z,63.26
2023-03-13T12:41:54.822Z,62.88
2023-03-13T12:47:02.590Z,62.20
2023-03-13T12:52:35.156Z,61.98
2023-03-13T12:57:48.800Z,61.56
2023-03-13T13:03:36.434Z,60.97
2023-03-13T13:08:44.093Z,61.05
2023-03-13T13:13:45.687Z,61.11
2023-03-13T13:18:47.293Z,60.90
2023-03-13T13:23:53.882Z,60.92
2023-03-13T13:28:58.054Z,61.32
2023-03-13T13:33:59.779Z,60.68
2023-03-13T13:39:01.367Z,60.38
2023-03-13T13:44:21.639Z,59.40
2023-03-13T13:49:36.056Z,58.64
2023-03-13T13:54:45.654Z,58.02
2023-03-13T13:59:51.658Z,58.48
2023-03-13T14:05:05.183Z,57.81
2023-03-13T14:10:34.732Z,58.24
2023-03-13T14:15:36.449Z,58.95
2023-03-13T14:20:53.413Z,58.75
2023-03-13T14:25:55.003Z,58.72
2023-03-13T14:30:58.404Z,58.01
2023-03-13T14:36:00.271Z,57.86
2023-03-13T14:41:01.882Z,57.67
2023-03-13T14:46:22.084Z,56.58
2023-03-13T14:51:26.853Z,56.35
2023-03-13T14:56:38.744Z,56.80
2023-03-13T15:01:40.414Z,56.83
2023-03-13T15:06:42.115Z,57.25
2023-03-13T15:12:02.041Z,57.04
2023-03-13T15:17:06.441Z,57.09
2023-03-13T15:22:15.079Z,56.71
2023-03-13T15:27:18.875Z,56.77
2023-03-13T15:32:27.810Z,56.92
2023-03-13T15:37:30.384Z,57.15
2023-03-13T15:42:32.037Z,57.78
2023-03-13T15:47:33.757Z,56.84
2023-03-13T15:52:35.962Z,56.30
2023-03-13T15:57:43.604Z,55.63
2023-03-13T16:02:45.363Z,55.14
2023-03-13T16:07:47.390Z,54.38
2023-03-13T16:12:49.014Z,54.03
2023-03-13T16:17:50.785Z,53.73
2023-03-13T16:22:53.766Z,53.85
2023-03-13T16:27:56.328Z,53.47
2023-03-13T16:32:59.346Z,53.09
2023-03-13T16:38:01.324Z,53.62
2023-03-13T16:43:03.059Z,53.16
2023-03-13T16:48:04.899Z,52.83
2023-03-13T16:53:06.711Z,52.84
2023-03-13T16:58:12.660Z,52.48
2023-03-13T17:03:14.293Z,52.82
2023-03-13T17:08:15.899Z,52.52
2023-03-13T17:13:20.313Z,52.45
2023-03-13T17:18:22.162Z,52.69
2023-03-13T17:23:23.798Z,52.68
2023-03-13T17:28:25.419Z,52.82
2023-03-13T17:33:27.540Z,52.73
2023-03-13T17:38:29.291Z,53.08
2023-03-13T17:43:30.942Z,53.06
2023-03-13T17:48:32.853Z,53.24
2023-03-13T17:53:34.473Z,53.19
2023-03-13T17:58:36.072Z,53.36
2023-03-13T18:03:37.695Z,53.61
2023-03-13T18:08:39.312Z,53.66
2023-03-13T18:13:41.042Z,53.68
2023-03-13T18:18:42.808Z,54.15
2023-03-13T18:23:44.503Z,54.39
2023-03-13T18:28:46.973Z,54.43
2023-03-13T18:33:48.578Z,54.34
2023-03-13T18:38:50.721Z,54.25
2023-03-13T18:43:52.709Z,53.97
2023-03-13T18:48:55.430Z,53.62
2023-03-13T18:53:57.119Z,52.97
2023-03-13T18:58:59.469Z,52.58
2023-03-13T19:04:01.517Z,51.64
2023-03-13T19:09:37.830Z,50.67
2023-03-13T19:14:33.930Z,50.97
2023-03-13T19:19:35.593Z,50.38
2023-03-13T19:24:37.285Z,49.81
2023-03-13T19:29:39.123Z,49.66
2023-03-13T19:34:40.791Z,49.14
2023-03-13T19:39:43.399Z,48.91
2023-03-13T19:44:45.476Z,49.01
2023-03-13T19:49:49.958Z,49.16
2023-03-13T19:54:54.537Z,48.90
2023-03-13T19:59:57.584Z,48.84
2023-03-13T20:04:59.290Z,49.41
2023-03-13T20:10:00.893Z,48.90
2023-03-13T20:15:02.543Z,49.49
2023-03-13T20:20:08.010Z,49.38
2023-03-13T20:25:10.778Z,49.37
2023-03-13T20:30:12.774Z,49.95
2023-03-13T20:35:14.445Z,50.27
2023-03-13T20:40:16.186Z,50.47
2023-03-13T20:45:18.028Z,50.86
2023-03-13T20:50:20.091Z,51.15
2023-03-13T20:55:21.723Z,51.42
2023-03-13T21:00:24.045Z,51.82
2023-03-13T21:05:25.950Z,52.03
2023-03-13T21:10:27.552Z,51.79
2023-03-13T21:15:29.184Z,52.33
2023-03-13T21:20:31.170Z,52.75
2023-03-13T21:25:32.914Z,52.98
2023-03-13T21:30:34.588Z,53.40
2023-03-13T21:35:36.249Z,54.10
2023-03-13T21:40:40.177Z,54.46
2023-03-13T21:45:41.849Z,55.15
2023-03-13T21:50:43.531Z,54.77
2023-03-13T21:55:45.380Z,54.85
2023-03-13T22:00:47.067Z,55.21
2023-03-13T22:05:48.872Z,55.28
2023-03-13T22:10:52.376Z,55.13
2023-03-13T22:15:54.013Z,55.25
2023-03-13T22:20:59.728Z,55.48
2023-03-13T22:26:01.498Z,55.63
2023-03-13T22:31:04.734Z,55.69
2023-03-13T22:36:07.041Z,55.46
2023-03-13T22:41:12.395Z,55.74
2023-03-13T22:46:17.992Z,55.98
2023-03-13T22:51:20.569Z,56.17
2023-03-13T22:56:22.320Z,56.23
2023-03-13T23:01:24.288Z,55.89
2023-03-13T23:06:26.350Z,55.92
2023-03-13T23:11:28.535Z,55.92
2023-03-13T23:16:30.315Z,55.84
2023-03-13T23:21:31.926Z,56.30
2023-03-13T23:26:33.635Z,56.44
2023-03-13T23:31:35.267Z,56.32
2023-03-13T23:36:36.919Z,56.36
2023-03-13T23:41:38.527Z,56.46
2023-03-13T23:46:40.177Z,56.61
2023-03-13T23:51:41.793Z,57.00
2023-03-13T23:56:43.407Z,56.72
